Date,TemperatureHighF,TemperatureAvgF,TemperatureLowF,DewpointHighF,DewpointAvgF,DewpointLowF,HumidityHigh,HumidityAvg,HumidityLow,PressureMaxIn,PressureMinIn,WindSpeedMaxMPH,WindSpeedAvgMPH,GustSpeedMaxMPH,PrecipitationSumIn
2013-1-1,34,31,28,32,28,23,93,84,77,0.00,40.00,4,2,12,2.83
2013-1-3,33,26,18,27,19,9,80,69,59,0.00,40.00,9,5,12,0.00
2013-1-4,34,30,26,23,19,14,73,61,51,0.00,40.00,11,5,14,0.00
2013-1-5,38,30,26,30,25,19,85,76,67,0.00,40.00,11,4,14,0.00
2013-1-6,39,35,32,34,30,27,98,82,68,0.00,40.00,9,4,14,17.00
2013-1-7,36,32,28,32,28,23,98,83,64,0.00,40.00,11,4,14,0.00
2013-1-8,43,34,25,30,26,21,88,72,51,0.00,40.00,9,3,14,0.00
2013-1-9,50,39,28,37,29,25,85,67,44,0.00,40.00,12,5,17,1.14
2013-1-10,43,34,21,32,27,19,97,76,45,0.00,40.00,6,1,12,0.00
2013-1-11,49,45,40,48,37,23,99,77,45,0.00,40.00,11,6,14,0.00
2013-1-12,61,53,43,54,50,41,100,92,77,0.00,40.00,11,4,14,0.00
2013-1-13,66,57,41,59,52,37,98,86,72,0.00,40.00,12,4,14,10.20
2013-1-14,41,33,29,39,29,21,99,83,66,0.00,40.00,11,5,14,0.00
2013-1-15,34,30,26,25,22,19,80,70,55,0.00,40.00,5,2,6,0.00
2013-1-16,37,32,26,32,26,21,88,75,58,0.00,40.00,9,2,14,0.00
2013-1-17,37,33,25,32,26,19,88,74,58,0.00,40.00,9,3,14,0.00
2013-1-18,34,25,18,21,15,7,80,62,50,0.00,40.00,13,6,14,6.81
2013-1-19,52,42,32,30,24,18,54,46,34,0.00,40.00,13,8,14,0.00
2013-1-20,49,30,19,32,20,10,81,65,45,0.00,40.00,17,8,21,11.91
2013-1-21,25,20,12,19,16,10,95,82,56,0.00,40.00,8,3,10,9.67
2013-1-22,14,8,-27,14,5,-29,94,82,66,0.00,40.00,14,6,17,16.44
2013-1-23,16,11,5,14,9,3,93,88,81,0.00,40.00,5,2,10,11.33
2013-1-24,21,12,-4,18,8,-6,94,80,53,0.00,40.00,10,2,14,4.53
2013-1-25,24,13,5,21,10,3,90,84,75,0.00,40.00,6,2,10,5.11
2013-1-26,30,22,12,25,20,10,94,88,73,0.00,40.00,6,1,8,14.20
2013-1-27,34,24,13,25,18,12,95,75,55,0.00,40.00,7,3,10,0.00
2013-1-28,45,38,25,43,36,23,99,95,84,0.00,40.00,13,5,17,13.59
2013-1-29,59,46,32,54,43,32,100,96,76,0.00,40.00,9,3,12,4.53
2013-1-30,62,57,41,55,50,36,98,80,68,0.00,40.00,14,8,17,0.00
2013-1-31,39,24,19,36,22,14,97,87,63,0.00,40.00,12,6,21,15.30
2013-2-1,22,18,13,21,14,7,97,83,66,0.00,40.00,10,4,14,6.81
2013-2-2,24,16,11,21,13,5,94,83,67,0.00,40.00,8,4,10,18.14
2013-2-3,24,20,17,23,17,10,98,86,69,0.00,40.00,7,2,8,17.59
2013-2-4,24,22,20,23,21,19,95,94,93,0.00,40.00,0,0,1,1.14
2013-2-5,31,24,18,27,21,16,98,84,62,0.00,40.00,4,1,6,1.14
2013-2-6,31,23,6,28,17,5,97,76,46,0.00,40.00,9,2,12,0.00
2013-2-7,44,29,2,30,19,1,94,67,45,0.00,40.00,11,4,14,0.00
2013-2-8,38,31,20,36,27,18,97,86,69,0.00,40.00,13,7,19,8.50
2013-2-9,33,23,9,23,18,9,91,78,51,0.00,40.00,9,2,14,0.00
2013-2-10,46,31,4,27,16,3,95,57,28,0.00,40.00,14,4,17,0.00
2013-2-11,53,41,32,43,34,23,95,75,47,0.00,40.00,13,8,17,1.14
2013-2-12,35,32,23,30,26,23,95,78,69,0.00,40.00,10,4,15,3.97
2013-2-13,38,30,26,32,27,23,97,84,60,0.00,40.00,5,1,6,0.00
2013-2-14,41,33,21,36,30,19,97,90,71,0.00,40.00,11,5,14,7.94
2013-2-15,38,33,25,32,26,19,82,73,58,0.00,40.00,12,3,14,3.42
2013-2-16,29,24,19,25,15,7,90,66,38,0.00,40.00,6,2,8,0.00
2013-2-17,24,19,4,21,15,1,93,82,68,0.00,40.00,7,3,12,5.67
2013-2-18,43,22,-3,28,12,-6,91,67,46,0.00,40.00,11,5,14,0.00
2013-2-19,46,34,18,39,29,16,95,83,53,0.00,40.00,16,7,21,23.80
2013-2-20,23,20,15,21,16,12,94,83,68,0.00,40.00,10,5,14,6.80
2013-2-21,25,20,13,19,16,10,90,80,73,0.00,40.00,6,3,10,8.53
2013-2-22,38,29,16,36,25,14,94,85,66,0.00,40.00,12,6,17,0.00
2013-2-23,38,34,29,34,30,23,94,83,63,0.00,40.00,6,2,12,0.00
2013-2-24,34,29,22,28,24,19,90,79,71,0.00,40.00,8,3,12,2.83
2013-2-25,43,34,24,32,24,21,97,67,46,0.00,40.00,19,2,8,0.00
2013-2-26,42,35,27,34,27,23,86,70,56,0.00,40.00,14,5,19,7.36
2013-2-27,42,38,32,39,35,32,98,92,81,0.00,40.00,7,2,19,3.97
2013-2-28,38,34,31,36,32,28,97,92,84,0.00,40.00,7,3,8,6.81
2013-3-1,33,29,24,32,27,21,95,88,81,0.00,40.00,5,4,8,0.00
2013-3-2,29,26,24,25,23,21,88,86,82,0.00,40.00,6,3,8,0.00
2013-3-3,31,26,23,28,21,16,94,81,71,0.00,40.00,9,5,12,13.03
2013-3-4,33,27,16,25,20,14,91,73,58,0.00,40.00,8,3,10,0.00
2013-3-5,40,27,13,32,23,12,95,82,56,0.00,40.00,7,3,10,0.00
2013-3-6,43,35,27,32,28,23,94,76,55,0.00,40.00,7,4,10,0.00
2013-3-7,39,34,28,36,32,27,97,92,82,0.00,40.00,6,2,8,1.14
2013-3-8,41,34,29,36,30,25,95,83,55,0.00,40.00,7,3,10,0.00
2013-3-9,52,39,23,36,30,23,99,72,37,0.00,40.00,7,2,10,0.00
2013-3-10,66,55,44,34,30,25,49,39,31,0.00,40.00,10,6,14,0.00
2013-3-11,60,54,43,46,36,32,98,54,37,0.00,40.00,11,6,17,3.97
2013-3-12,45,37,33,45,32,25,98,81,71,0.00,40.00,7,3,12,0.00
2013-3-13,38,31,26,32,27,21,93,82,66,0.00,40.00,12,5,17,8.50
2013-3-14,33,28,23,23,19,14,88,65,54,0.00,40.00,11,5,14,0.00
2013-3-15,40,33,22,34,29,19,98,83,71,0.00,40.00,9,3,12,11.33
2013-3-16,36,30,21,34,29,19,100,95,85,0.00,40.00,7,2,14,5.11
2013-3-17,34,28,20,28,22,16,97,75,47,0.00,40.00,8,2,10,0.00
2013-3-18,37,32,23,34,27,16,97,82,63,0.00,40.00,17,8,22,6.81
2013-3-19,36,31,24,36,27,19,99,83,62,0.00,40.00,9,4,22,11.34
2013-3-20,31,28,23,30,21,12,95,72,50,0.00,40.00,10,5,14,5.66
2013-3-21,31,24,7,30,22,5,97,89,77,0.00,40.00,7,3,12,13.61
2013-3-22,34,29,25,28,24,19,98,80,67,0.00,40.00,8,3,12,7.95
2013-3-23,38,28,15,30,23,14,95,79,53,0.00,40.00,5,1,8,0.00
2013-3-24,37,27,11,28,21,10,97,78,51,0.00,40.00,11,3,14,0.00
2013-3-25,38,33,28,34,31,25,100,90,71,0.00,40.00,7,4,12,17.57
2013-3-26,42,36,30,36,32,28,94,86,67,0.00,40.00,9,3,14,0.00
2013-3-27,41,35,32,34,30,27,99,82,60,0.00,40.00,9,4,14,14.17
2013-3-28,43,36,32,37,33,30,100,89,75,0.00,40.00,5,2,12,25.51
2013-3-29,52,40,28,37,30,21,94,71,37,0.00,40.00,7,2,10,0.00
2013-3-30,56,40,25,34,28,21,98,66,28,0.00,40.00,6,2,10,0.00
2013-3-31,55,46,34,46,34,-100,93,68,41,0.00,40.00,11,4,15,0.00
2013-4-1,49,36,29,43,25,12,93,64,40,0.00,40.00,11,6,17,1.14
2013-4-2,38,31,25,27,18,12,90,58,41,0.00,40.00,11,5,14,0.00
2013-4-3,34,30,22,27,19,14,82,61,46,0.00,40.00,11,4,14,0.00
2013-4-4,54,33,18,23,16,7,93,58,16,0.00,40.00,7,2,10,0.00
2013-4-8,72,68,61,55,47,41,66,49,40,0.00,40.00,16,8,22,0.00
2013-4-9,78,59,44,59,47,41,93,68,46,0.00,40.00,9,4,22,0.00
2013-4-10,57,46,36,55,44,36,99,94,76,0.00,40.00,7,2,14,0.00
2013-4-11,50,40,33,45,38,32,100,96,81,0.00,40.00,10,3,14,5.67
2013-4-12,58,46,39,55,42,32,98,87,71,0.00,40.00,10,4,14,4.53
2013-4-13,45,40,35,41,34,28,98,81,60,0.00,40.00,9,3,15,1.14
2013-4-14,49,42,32,37,32,28,90,71,54,0.00,40.00,4,1,12,0.00
2013-4-15,72,60,47,52,42,32,71,54,38,0.00,40.00,14,7,19,0.00
2013-4-16,67,57,48,61,50,46,97,81,64,0.00,40.00,12,5,17,2.28
2013-4-17,60,52,43,50,38,32,98,64,40,0.00,40.00,7,3,12,0.00
2013-4-18,84,70,51,59,54,41,80,60,33,0.00,40.00,16,8,22,0.00
2013-4-19,70,55,40,61,45,25,98,70,54,0.00,40.00,16,8,21,3.97
2013-4-20,43,37,28,34,28,21,94,71,45,0.00,40.00,13,6,19,5.67
2013-4-21,46,37,24,32,27,21,98,65,41,0.00,40.00,8,3,12,0.00
2013-4-22,63,49,31,34,29,23,91,48,29,0.00,40.00,10,4,14,0.00
2013-4-23,72,57,42,41,34,25,68,44,28,0.00,40.00,10,6,14,0.00
2013-4-24,65,49,35,54,41,32,100,82,36,0.00,40.00,11,6,17,10.77
2013-4-25,53,41,32,41,34,28,98,78,40,0.00,40.00,11,4,17,0.00
2013-4-26,58,44,28,41,32,27,99,66,31,0.00,40.00,6,2,17,0.00
2013-4-27,73,52,32,48,35,30,99,61,20,0.00,40.00,6,2,8,0.00
2013-4-28,62,56,45,54,44,-100,95,70,38,0.00,40.00,12,6,14,5.67
2013-4-29,67,56,51,59,52,46,98,90,75,0.00,40.00,9,3,14,1.14
2013-4-30,73,62,49,55,52,46,98,73,46,0.00,40.00,9,4,12,0.00
2013-5-1,77,65,55,57,50,41,90,64,33,0.00,40.00,10,4,14,0.00
2013-5-2,79,66,56,45,36,27,51,34,15,0.00,40.00,8,4,12,0.00
2013-5-3,77,66,55,43,37,32,55,37,24,0.00,40.00,12,6,14,0.00
2013-5-4,74,62,52,48,39,32,86,48,23,0.00,40.00,10,5,14,0.00
2013-5-5,76,62,47,48,36,19,89,45,12,0.00,40.00,11,4,15,0.00
2013-5-6,75,62,49,54,38,23,85,44,23,0.00,40.00,7,3,10,0.00
2013-5-7,77,64,50,55,52,46,93,68,38,0.00,40.00,7,2,10,0.00
2013-5-8,72,61,53,59,54,50,97,83,50,0.00,40.00,4,1,8,0.00
2013-5-9,77,62,51,57,50,34,99,74,24,0.00,40.00,6,1,10,0.00
2013-5-10,74,60,52,63,52,-100,99,82,60,0.00,40.00,13,4,19,8.50
2013-5-11,60,46,39,57,43,37,98,92,78,0.00,40.00,6,2,12,1.14
2013-5-12,49,42,32,45,32,-100,98,72,47,0.00,40.00,11,4,14,1.14
2013-5-13,50,40,32,32,28,25,95,61,37,0.00,40.00,7,2,14,0.00
2013-5-14,55,45,29,41,34,28,99,69,47,0.00,40.00,10,4,12,1.14
2013-5-15,82,64,49,61,48,37,93,61,34,0.00,40.00,11,4,15,2.28
2013-5-16,78,57,44,54,26,-100,99,63,23,0.00,40.00,7,2,12,0.00
2013-5-17,73,58,41,48,39,-100,95,63,29,0.00,40.00,7,2,12,0.00
2013-5-18,78,66,54,55,48,41,78,55,37,0.00,40.00,6,2,10,0.00
2013-5-19,80,70,60,64,59,54,90,71,51,0.00,40.00,9,4,14,0.00
2013-5-20,86,74,62,68,62,57,94,72,46,0.00,40.00,9,3,14,0.00
2013-5-21,87,76,67,68,64,59,91,71,42,0.00,40.00,12,4,17,0.00
2013-5-22,86,77,70,66,60,54,82,60,38,0.00,40.00,14,5,17,0.00
2013-5-23,75,62,44,66,57,41,97,87,59,0.00,40.00,7,2,14,4.53
2013-5-24,48,43,35,43,36,32,99,82,59,0.00,40.00,7,4,10,0.00
2013-5-25,59,47,30,43,34,30,100,67,37,0.00,40.00,8,3,12,0.00
2013-5-26,65,49,28,45,35,28,100,67,31,0.00,40.00,7,2,10,0.00
2013-5-27,69,52,33,52,40,32,100,71,31,0.00,40.00,6,2,8,3.97
2013-5-28,77,63,51,64,58,46,98,88,67,0.00,40.00,7,3,12,29.44
2013-5-29,84,73,60,70,62,57,98,73,51,0.00,40.00,7,2,14,8.49
2013-5-30,85,72,59,72,63,55,97,79,44,0.00,40.00,6,1,10,0.00
2013-5-31,86,72,62,72,62,59,95,77,42,0.00,40.00,11,3,15,1.14
2013-6-1,84,73,64,70,65,61,98,79,58,0.00,40.00,15,5,21,6.81
2013-6-2,76,68,59,66,58,-100,99,78,51,0.00,40.00,8,3,14,0.00
2013-6-3,61,55,43,54,44,34,95,72,40,0.00,40.00,6,2,10,0.00
2013-6-4,67,53,38,50,42,37,99,72,40,0.00,40.00,5,1,10,0.00
2013-6-5,74,60,42,55,47,41,99,68,41,0.00,40.00,8,2,12,0.00
2013-6-6,63,58,49,61,55,46,99,95,75,0.00,40.00,4,1,12,24.36
2013-6-7,62,52,47,57,50,46,100,95,82,0.00,40.00,6,2,8,23.23
2013-6-8,69,59,49,57,53,46,98,83,59,0.00,40.00,3,0,8,4.53
2013-6-9,79,64,44,63,53,43,100,74,47,0.00,40.00,4,1,6,9.06
2013-6-10,74,68,60,68,63,55,97,88,60,0.00,40.00,6,2,10,5.11
2013-6-11,74,65,59,66,60,55,98,90,72,0.00,40.00,4,1,10,0.00
2013-6-12,79,67,55,70,61,54,98,84,60,0.00,40.00,4,0,6,0.00
2013-6-13,68,59,53,63,56,52,99,94,78,0.00,40.00,7,2,12,13.03
2013-6-14,71,59,47,61,53,45,99,86,66,0.00,40.00,5,1,6,0.00
2013-6-15,81,63,40,64,51,39,99,73,37,0.00,40.00,6,0,8,0.00
2013-6-16,78,69,62,66,61,55,95,79,63,0.00,40.00,9,2,12,1.14
2013-6-17,83,71,55,70,60,54,99,73,45,0.00,40.00,6,1,8,0.00
2013-6-18,71,62,53,61,54,45,100,80,56,0.00,40.00,10,3,14,2.83
2013-6-19,71,61,46,54,48,45,98,69,44,0.00,40.00,6,1,12,0.00
2013-7-1,67,64,62,63,61,59,93,92,85,0.00,40.00,4,3,8,0.00
2013-7-2,79,78,77,68,68,68,76,74,73,0.00,40.00,3,2,8,0.00
2013-7-3,83,82,80,72,70,68,73,70,63,0.00,40.00,4,3,8,0.00
2013-7-4,68,65,63,66,63,61,98,96,94,0.00,40.00,1,1,12,0.00
2013-7-5,71,69,66,68,67,64,97,94,91,0.00,40.00,0,0,4,0.00
2013-7-6,87,78,71,72,68,66,93,77,55,0.00,40.00,4,2,8,1.14
2013-7-7,82,73,66,70,65,63,98,80,60,0.00,40.00,5,2,8,0.00
2013-7-8,64,64,64,63,63,63,98,98,98,0.00,40.00,0,0,4,1.14
2013-7-9,85,84,83,73,73,72,72,70,68,0.00,40.00,2,2,6,0.00
2013-7-10,84,64,75,73,37,-100,86,63,72,0.00,40.00,6,3,8,0.00
2013-7-11,63,60,57,61,58,55,98,95,88,0.00,40.00,0,0,10,0.00
2013-7-12,70,61,56,61,58,55,99,90,73,0.00,40.00,2,1,8,0.00
2013-7-21,83,64,58,68,60,55,99,92,53,0.00,40.00,1,0,1,2.83
2013-7-22,81,67,58,73,63,55,98,92,67,0.00,40.00,2,0,6,1.14
2013-7-23,82,79,70,68,66,63,82,65,56,0.00,40.00,3,1,10,1.14
2013-7-24,62,61,56,54,52,50,94,75,68,0.00,40.00,7,3,10,0.00
2013-7-25,70,53,44,59,50,43,99,92,58,0.00,40.00,1,0,8,0.00
2013-7-26,80,74,52,59,53,48,97,52,37,0.00,40.00,4,2,8,0.00
2013-7-27,69,67,64,66,62,59,94,87,78,0.00,40.00,6,2,8,3.42
2013-8-3,68,64,60,63,60,57,94,90,85,0.00,40.00,0,0,10,0.00
2013-8-4,59,58,56,55,54,54,97,92,88,0.00,40.00,0,0,6,0.00
2013-8-5,72,65,58,55,55,55,95,76,58,0.00,40.00,1,0,6,0.00
2013-8-6,74,65,51,61,55,50,98,75,60,0.00,40.00,3,1,4,0.00
2013-8-8,74,72,71,70,69,68,99,92,86,0.00,40.00,4,3,8,0.00
2013-8-9,74,69,60,55,55,54,90,63,53,0.00,40.00,2,0,2,0.00
2013-11-20,37,37,37,14,14,14,38,38,38,0.00,40.00,4,4,10,0.00
2013-11-21,39,39,39,34,34,34,86,86,86,0.00,40.00,4,4,10,0.00
2013-11-22,47,44,40,46,41,36,98,94,90,0.00,40.00,7,4,10,4.53
2013-11-23,-200,0,200,-100,-100,-100,0,0,100,0.00,40.00,8,8,15,0.00
2013-11-24,24,23,22,19,14,10,80,66,54,0.00,40.00,7,4,15,1.14
2013-11-25,32,30,20,18,15,12,90,52,45,0.00,40.00,9,7,17,0.00
2013-11-26,36,33,31,32,29,21,86,82,63,0.00,40.00,7,5,17,0.00